createdAt,value
2022-10-02T00:01:01.842Z,2.90
2022-10-02T00:03:32.214Z,3.03
2022-10-02T00:06:04.874Z,3.27
2022-10-02T00:08:35.485Z,2.73
2022-10-02T00:11:08.962Z,3.03
2022-10-02T00:13:41.299Z,2.73
2022-10-02T00:16:15.797Z,3.00
2022-10-02T00:18:43.861Z,3.30
2022-10-02T00:21:31.300Z,2.70
2022-10-02T00:24:00.268Z,2.70
2022-10-02T00:26:34.094Z,2.80
2022-10-02T00:29:14.072Z,2.77
2022-10-02T00:31:50.485Z,2.93
2022-10-02T00:34:26.993Z,3.00
2022-10-02T00:37:05.703Z,3.10
2022-10-02T00:39:46.411Z,2.97
2022-10-02T00:42:55.546Z,3.17
2022-10-02T00:45:54.049Z,2.77
2022-10-02T00:48:55.779Z,3.20
2022-10-02T00:51:41.945Z,2.63
2022-10-02T00:54:31.345Z,2.20
2022-10-02T00:57:09.429Z,2.87
2022-10-02T00:59:51.421Z,2.83
2022-10-02T01:02:45.065Z,2.90
2022-10-02T01:05:13.483Z,2.83
2022-10-02T01:07:42.943Z,3.10
2022-10-02T01:10:11.366Z,2.90
2022-10-02T01:12:39.444Z,3.07
2022-10-02T01:15:12.070Z,2.30
2022-10-02T01:17:39.177Z,3.03
2022-10-02T01:20:14.879Z,3.00
2022-10-02T01:22:49.283Z,2.47
2022-10-02T01:25:17.631Z,2.30
2022-10-02T01:27:45.775Z,2.50
2022-10-02T01:30:16.230Z,2.93
2022-10-02T01:32:49.587Z,2.70
2022-10-02T01:35:17.849Z,2.70
2022-10-02T01:37:47.154Z,3.03
2022-10-02T01:40:26.325Z,2.50
2022-10-02T01:42:55.664Z,2.63
2022-10-02T01:45:32.669Z,2.63
2022-10-02T01:48:08.528Z,2.50
2022-10-02T01:50:48.040Z,2.87
2022-10-02T01:53:23.179Z,2.50
2022-10-02T01:56:03.495Z,2.53
2022-10-02T01:58:42.761Z,2.30
2022-10-02T02:01:21.838Z,3.10
2022-10-02T02:03:54.907Z,2.63
2022-10-02T02:06:30.088Z,2.80
2022-10-02T02:09:06.044Z,2.97
2022-10-02T02:11:38.731Z,2.87
2022-10-02T02:14:12.255Z,3.10
2022-10-02T02:16:43.021Z,2.63
2022-10-02T02:19:16.427Z,2.80
2022-10-02T02:21:49.313Z,2.73
2022-10-02T02:24:22.240Z,3.03
2022-10-02T02:26:55.419Z,3.03
2022-10-02T02:29:24.479Z,2.53
2022-10-02T02:31:55.367Z,2.73
2022-10-02T02:34:27.321Z,2.80
2022-10-02T02:37:00.595Z,3.00
2022-10-02T02:39:32.694Z,3.13
2022-10-02T02:42:05.402Z,3.03
2022-10-02T02:44:38.254Z,2.90
2022-10-02T02:47:12.893Z,3.50
2022-10-02T02:49:49.568Z,3.60
2022-10-02T02:52:21.795Z,2.93
2022-10-02T02:54:53.887Z,3.80
2022-10-02T02:57:28.931Z,3.73
2022-10-02T02:59:57.939Z,4.30
2022-10-02T03:02:25.445Z,3.90
2022-10-02T03:04:52.324Z,4.27
2022-10-02T03:07:19.821Z,4.40
2022-10-02T03:09:58.037Z,4.40
2022-10-02T03:12:36.816Z,4.43
2022-10-02T03:15:19.830Z,4.60
2022-10-02T03:18:02.783Z,4.57
2022-10-02T03:20:41.599Z,4.60
2022-10-02T03:23:16.699Z,5.07
2022-10-02T03:25:51.892Z,5.43
2022-10-02T03:28:50.742Z,5.33
2022-10-02T03:31:14.946Z,5.23
2022-10-02T03:33:43.649Z,5.60
2022-10-02T03:36:14.750Z,5.70
2022-10-02T03:38:42.610Z,5.77
2022-10-02T03:41:09.454Z,5.97
2022-10-02T03:43:38.944Z,5.73
2022-10-02T03:46:06.167Z,5.40
2022-10-02T03:48:33.395Z,6.17
2022-10-02T03:51:00.292Z,5.30
2022-10-02T03:53:35.374Z,5.53
2022-10-02T03:56:06.399Z,5.27
2022-10-02T03:58:34.971Z,6.10
2022-10-02T04:01:10.356Z,6.20
2022-10-02T04:03:40.863Z,6.10
2022-10-02T04:06:14.361Z,6.57
2022-10-02T04:08:47.427Z,5.63
2022-10-02T04:11:19.832Z,5.97
2022-10-02T04:13:50.777Z,6.80
2022-10-02T04:16:24.317Z,6.10
2022-10-02T04:18:56.135Z,6.57
2022-10-02T04:21:34.336Z,6.40
2022-10-02T04:24:09.528Z,6.60
2022-10-02T04:26:41.212Z,6.67
2022-10-02T04:29:15.844Z,6.93
2022-10-02T04:31:45.874Z,6.53
2022-10-02T04:34:13.796Z,7.33
2022-10-02T04:36:54.700Z,6.80
2022-10-02T04:39:38.042Z,8.30
2022-10-02T04:42:26.050Z,8.10
2022-10-02T04:45:09.842Z,8.20
2022-10-02T04:48:00.052Z,8.20
2022-10-02T04:50:38.547Z,8.63
2022-10-02T04:53:21.567Z,8.20
2022-10-02T04:56:15.301Z,8.97
2022-10-02T04:58:56.004Z,9.03
2022-10-02T05:01:38.209Z,8.90
2022-10-02T05:04:32.322Z,9.53
2022-10-02T05:07:14.131Z,9.23
2022-10-02T05:09:47.729Z,10.07
2022-10-02T05:12:27.243Z,9.60
2022-10-02T05:15:23.304Z,10.17
2022-10-02T05:18:08.240Z,10.23
2022-10-02T05:20:52.191Z,10.13
2022-10-02T05:23:44.935Z,10.63
2022-10-02T05:26:41.179Z,10.27
2022-10-02T05:29:24.488Z,11.97
2022-10-02T05:32:04.696Z,10.13
2022-10-02T05:34:56.514Z,9.77
2022-10-02T05:37:49.468Z,10.10
2022-10-02T05:40:25.086Z,9.60
2022-10-02T05:42:59.994Z,10.13
2022-10-02T05:45:31.532Z,9.73
2022-10-02T05:48:06.647Z,10.20
2022-10-02T05:50:36.329Z,10.03
2022-10-02T05:53:09.036Z,10.37
2022-10-02T05:55:39.468Z,10.90
2022-10-02T05:58:12.867Z,11.10
2022-10-02T06:00:45.761Z,11.67
2022-10-02T06:03:17.859Z,10.93
2022-10-02T06:05:55.201Z,11.40
2022-10-02T06:08:30.697Z,12.13
2022-10-02T06:11:04.261Z,12.13
2022-10-02T06:13:36.550Z,12.63
2022-10-02T06:16:12.097Z,12.87
2022-10-02T06:18:43.997Z,12.80
2022-10-02T06:21:18.117Z,14.07
2022-10-02T06:23:52.853Z,13.33
2022-10-02T06:26:25.849Z,14.40
2022-10-02T06:28:56.632Z,13.60
2022-10-02T06:31:34.795Z,13.50
2022-10-02T06:34:02.127Z,13.53
2022-10-02T06:36:43.523Z,14.60
2022-10-02T06:39:30.148Z,14.83
2022-10-02T06:42:08.524Z,13.73
2022-10-02T06:44:47.941Z,13.17
2022-10-02T06:47:34.493Z,12.17
2022-10-02T06:50:19.352Z,12.70
2022-10-02T06:52:56.060Z,12.03
2022-10-02T06:55:45.340Z,12.73
2022-10-02T06:58:40.536Z,12.77
2022-10-02T07:01:18.982Z,12.07
2022-10-02T07:04:00.928Z,11.07
2022-10-02T07:06:41.541Z,11.87
2022-10-02T07:09:45.809Z,11.33
2022-10-02T07:12:34.459Z,12.00
2022-10-02T07:15:26.167Z,11.73
2022-10-02T07:18:05.440Z,11.97
2022-10-02T07:20:38.829Z,11.93
2022-10-02T07:23:33.445Z,12.03
2022-10-02T07:26:23.345Z,11.70
2022-10-02T07:29:02.630Z,10.97
2022-10-02T07:31:41.313Z,11.00
2022-10-02T07:34:21.270Z,11.47
2022-10-02T07:36:59.249Z,10.43
2022-10-02T07:39:40.379Z,9.77
2022-10-02T07:42:43.105Z,10.07
2022-10-02T07:45:35.658Z,10.67
2022-10-02T07:48:28.881Z,10.50
2022-10-02T07:51:06.170Z,9.00
2022-10-02T07:53:39.579Z,8.80
2022-10-02T07:56:10.132Z,8.10
2022-10-02T07:58:40.563Z,7.90
2022-10-02T08:01:13.808Z,7.93
2022-10-02T08:03:46.756Z,8.00
2022-10-02T08:06:14.665Z,8.57
2022-10-02T08:08:48.277Z,8.20
2022-10-02T08:11:21.178Z,8.60
2022-10-02T08:13:55.600Z,7.87
2022-10-02T08:16:28.497Z,8.33
2022-10-02T08:19:01.305Z,7.83
2022-10-02T08:21:34.177Z,7.73
2022-10-02T08:24:06.312Z,7.83
2022-10-02T08:26:37.691Z,7.37
2022-10-02T08:29:10.278Z,8.57
2022-10-02T08:31:39.085Z,7.70
2022-10-02T08:34:16.486Z,8.00
2022-10-02T08:36:58.651Z,7.93
2022-10-02T08:39:50.436Z,7.50
2022-10-02T08:43:00.614Z,8.13
2022-10-02T08:45:53.405Z,9.27
2022-10-02T08:49:06.763Z,8.07
2022-10-02T08:52:19.810Z,8.97
2022-10-02T08:55:20.016Z,8.53
2022-10-02T08:58:19.292Z,7.97
2022-10-02T09:00:56.752Z,8.77
2022-10-02T09:04:09.070Z,8.57
2022-10-02T09:07:04.847Z,8.20
2022-10-02T09:10:11.134Z,7.63
2022-10-02T09:13:00.075Z,7.73
2022-10-02T09:15:43.967Z,7.90
2022-10-02T09:18:18.396Z,7.63
2022-10-02T09:21:09.386Z,8.03
2022-10-02T09:24:19.491Z,6.50
2022-10-02T09:27:18.126Z,6.80
2022-10-02T09:30:11.801Z,6.10
2022-10-02T09:33:16.526Z,6.50
2022-10-02T09:36:07.269Z,5.70
2022-10-02T09:39:16.348Z,6.13
2022-10-02T09:42:28.845Z,5.37
2022-10-02T09:45:52.771Z,5.50
2022-10-02T09:48:57.011Z,4.73
2022-10-02T09:52:07.099Z,4.57
2022-10-02T09:55:12.509Z,3.87
2022-10-02T09:58:44.777Z,4.50
2022-10-02T10:01:55.962Z,4.03
2022-10-02T10:05:07.172Z,3.20
2022-10-02T10:08:10.957Z,3.43
2022-10-02T10:11:10.707Z,4.60
2022-10-02T10:14:34.256Z,3.50
2022-10-02T10:17:43.715Z,3.13
2022-10-02T10:21:02.948Z,3.80
2022-10-02T10:23:57.809Z,3.97
2022-10-02T10:26:59.019Z,3.00
2022-10-02T10:29:49.094Z,2.80
2022-10-02T10:32:56.993Z,2.70
2022-10-02T10:35:37.549Z,2.70
2022-10-02T10:38:33.487Z,2.87
2022-10-02T10:41:36.231Z,3.43
2022-10-02T10:44:28.187Z,2.90
2022-10-02T10:47:20.212Z,2.77
2022-10-02T10:50:04.481Z,2.63
2022-10-02T10:52:46.969Z,2.93
2022-10-02T10:55:19.314Z,3.20
2022-10-02T10:58:09.636Z,3.10
2022-10-02T11:00:45.750Z,3.53
2022-10-02T11:03:59.788Z,2.77
2022-10-02T11:06:59.675Z,2.80
2022-10-02T11:10:05.163Z,3.33
2022-10-02T11:12:56.569Z,3.10
2022-10-02T11:15:51.955Z,2.80
2022-10-02T11:19:19.234Z,2.73
2022-10-02T11:22:30.517Z,2.83
2022-10-02T11:25:39.859Z,2.77
2022-10-02T11:29:00.669Z,2.90
2022-10-02T11:32:08.865Z,2.93
2022-10-02T11:35:14.632Z,2.63
2022-10-02T11:38:16.911Z,3.27
2022-10-02T11:41:09.063Z,5.67
2022-10-02T11:44:14.620Z,8.33
2022-10-02T11:47:21.847Z,2.63
2022-10-02T11:50:40.113Z,2.33
2022-10-02T11:53:47.690Z,2.50
2022-10-02T11:56:50.040Z,2.57
2022-10-02T11:59:40.108Z,2.90
2022-10-02T12:02:18.863Z,2.60
2022-10-02T12:05:05.007Z,2.72
2022-10-02T12:07:45.176Z,2.50
2022-10-02T12:10:43.255Z,2.80
2022-10-02T12:13:42.865Z,2.30
2022-10-02T12:16:20.858Z,2.63
2022-10-02T12:19:11.441Z,3.30
2022-10-02T12:22:12.315Z,2.77
2022-10-02T12:25:06.365Z,2.73
2022-10-02T12:27:50.905Z,2.90
2022-10-02T12:30:21.207Z,6.57
2022-10-02T12:33:25.297Z,6.70
2022-10-02T12:36:18.119Z,5.47
2022-10-02T12:38:59.953Z,3.07
2022-10-02T12:41:53.548Z,2.30
2022-10-02T12:44:51.599Z,2.73
2022-10-02T12:47:47.845Z,2.23
2022-10-02T12:50:29.868Z,2.20
2022-10-02T12:53:31.887Z,2.00
2022-10-02T12:56:20.754Z,2.43
2022-10-02T12:58:59.741Z,1.83
2022-10-02T13:02:05.620Z,1.73
2022-10-02T13:04:57.424Z,2.33
2022-10-02T13:07:52.131Z,1.93
2022-10-02T13:10:23.059Z,1.73
2022-10-02T13:13:04.305Z,2.27
2022-10-02T13:15:46.097Z,1.90
2022-10-02T13:18:34.718Z,1.57
2022-10-02T13:21:12.178Z,1.50
2022-10-02T13:23:52.586Z,1.80
2022-10-02T13:26:32.215Z,1.93
2022-10-02T13:29:19.336Z,1.87
2022-10-02T13:32:08.918Z,1.90
2022-10-02T13:35:19.473Z,1.75
2022-10-02T13:38:00.311Z,2.05
2022-10-02T13:40:31.120Z,1.58
2022-10-02T13:43:31.518Z,2.10
2022-10-02T13:46:04.936Z,2.30
2022-10-02T13:48:45.805Z,2.60
2022-10-02T13:51:22.261Z,2.13
2022-10-02T13:54:32.466Z,2.50
2022-10-02T13:57:08.891Z,2.13
2022-10-02T13:59:48.660Z,2.90
2022-10-02T14:02:35.626Z,2.80
2022-10-02T14:05:11.499Z,2.10
2022-10-02T14:08:02.149Z,2.70
2022-10-02T14:10:41.939Z,2.53
2022-10-02T14:13:22.190Z,2.40
2022-10-02T14:16:03.075Z,2.70
2022-10-02T14:18:45.958Z,3.97
2022-10-02T14:21:24.955Z,3.77
2022-10-02T14:24:21.802Z,5.77
2022-10-02T14:27:08.060Z,2.80
2022-10-02T14:29:49.922Z,2.60
2022-10-02T14:32:47.678Z,3.05
2022-10-02T14:35:43.297Z,2.63
2022-10-02T14:38:34.698Z,2.40
2022-10-02T14:41:22.930Z,2.88
2022-10-02T14:44:16.296Z,2.53
2022-10-02T14:47:15.245Z,2.42
2022-10-02T14:50:09.204Z,2.67
2022-10-02T14:53:11.031Z,2.72
2022-10-02T14:55:56.493Z,2.63
2022-10-02T14:58:35.193Z,2.40
2022-10-02T15:01:16.937Z,2.22
2022-10-02T15:04:05.160Z,2.15
2022-10-02T15:06:46.923Z,1.98
2022-10-02T15:09:19.835Z,2.20
2022-10-02T15:11:57.213Z,2.63
2022-10-02T15:14:36.536Z,2.37
2022-10-02T15:17:27.623Z,2.22
2022-10-02T15:20:02.079Z,2.60
2022-10-02T15:22:38.290Z,2.50
2022-10-02T15:25:20.640Z,2.40
2022-10-02T15:28:24.529Z,2.13
2022-10-02T15:31:00.827Z,2.37
2022-10-02T15:33:35.411Z,2.07
2022-10-02T15:36:12.998Z,2.70
2022-10-02T15:39:04.523Z,1.87
2022-10-02T15:41:48.245Z,1.70
2022-10-02T15:44:45.500Z,1.67
2022-10-02T15:47:38.205Z,2.00
2022-10-02T15:50:19.937Z,1.50
2022-10-02T15:52:57.095Z,1.60
2022-10-02T15:55:29.891Z,2.40
2022-10-02T15:58:18.670Z,1.40
2022-10-02T16:01:08.674Z,1.70
2022-10-02T16:03:45.123Z,2.13
2022-10-02T16:06:23.781Z,1.50
2022-10-02T16:09:13.536Z,1.43
2022-10-02T16:12:08.431Z,1.90
2022-10-02T16:14:50.154Z,2.07
2022-10-02T16:17:42.608Z,2.50
2022-10-02T16:20:49.715Z,1.60
2022-10-02T16:23:36.177Z,2.13
2022-10-02T16:26:14.117Z,2.37
2022-10-02T16:28:54.153Z,2.73
2022-10-02T16:31:35.139Z,2.07
2022-10-02T16:34:11.984Z,2.43
2022-10-02T16:36:50.245Z,2.40
2022-10-02T16:39:31.865Z,2.90
2022-10-02T16:42:01.937Z,3.03
2022-10-02T16:44:54.571Z,2.80
2022-10-02T16:47:28.522Z,2.93
2022-10-02T16:50:01.492Z,2.80
2022-10-02T16:52:33.825Z,2.80
2022-10-02T16:55:13.302Z,2.80
2022-10-02T16:58:00.358Z,2.60
2022-10-02T17:00:33.840Z,2.83
2022-10-02T17:03:08.743Z,2.77
2022-10-02T17:05:45.716Z,3.63
2022-10-02T17:08:22.911Z,3.47
2022-10-02T17:11:08.717Z,3.67
2022-10-02T17:13:45.917Z,3.47
2022-10-02T17:16:21.084Z,3.93
2022-10-02T17:18:54.721Z,3.00
2022-10-02T17:21:27.467Z,3.10
2022-10-02T17:24:20.403Z,3.43
2022-10-02T17:26:53.176Z,3.10
2022-10-02T17:29:26.571Z,3.73
2022-10-02T17:31:55.979Z,3.40
2022-10-02T17:34:24.828Z,3.23
2022-10-02T17:37:02.381Z,3.50
2022-10-02T17:39:51.216Z,3.50
2022-10-02T17:42:32.656Z,4.07
2022-10-02T17:45:15.393Z,3.33
2022-10-02T17:47:55.257Z,3.43
2022-10-02T17:50:46.120Z,2.93
2022-10-02T17:53:57.720Z,3.23
2022-10-02T17:57:01.611Z,3.50
2022-10-02T18:00:03.689Z,3.00
2022-10-02T18:02:47.316Z,3.27
2022-10-02T18:05:28.100Z,3.10
2022-10-02T18:08:08.917Z,3.30
2022-10-02T18:10:44.330Z,3.63
2022-10-02T18:13:28.741Z,3.07
2022-10-02T18:16:22.165Z,3.40
2022-10-02T18:19:28.217Z,3.70
2022-10-02T18:22:15.126Z,3.27
2022-10-02T18:25:00.042Z,3.77
2022-10-02T18:27:45.555Z,3.77
2022-10-02T18:30:18.663Z,4.10
2022-10-02T18:33:27.043Z,3.77
2022-10-02T18:36:12.795Z,3.77
2022-10-02T18:38:58.036Z,4.20
2022-10-02T18:41:49.813Z,4.30
2022-10-02T18:44:34.348Z,4.07
2022-10-02T18:47:13.791Z,4.33
2022-10-02T18:49:56.518Z,4.27
2022-10-02T18:52:54.191Z,4.53
2022-10-02T18:55:48.792Z,3.70
2022-10-02T18:58:26.463Z,4.43
2022-10-02T19:01:18.169Z,3.73
2022-10-02T19:04:18.050Z,3.77
2022-10-02T19:06:51.034Z,4.63
2022-10-02T19:09:24.617Z,4.37
2022-10-02T19:12:00.438Z,4.47
2022-10-02T19:14:41.118Z,4.20
2022-10-02T19:17:14.439Z,4.13
2022-10-02T19:19:42.341Z,3.97
2022-10-02T19:22:18.634Z,4.33
2022-10-02T19:24:49.376Z,4.07
2022-10-02T19:27:23.445Z,4.03
2022-10-02T19:29:55.765Z,3.97
2022-10-02T19:32:27.208Z,3.47
2022-10-02T19:35:04.323Z,3.03
2022-10-02T19:37:39.670Z,3.30
2022-10-02T19:40:14.175Z,3.40
2022-10-02T19:42:48.524Z,4.17
2022-10-02T19:45:25.513Z,4.10
2022-10-02T19:47:56.720Z,3.57
2022-10-02T19:50:27.886Z,3.23
2022-10-02T19:52:59.645Z,3.70
2022-10-02T19:55:29.069Z,3.67
2022-10-02T19:57:59.535Z,3.77
2022-10-02T20:00:27.918Z,4.20
2022-10-02T20:02:57.786Z,3.90
2022-10-02T20:05:26.965Z,4.00
2022-10-02T20:08:05.732Z,4.00
2022-10-02T20:10:37.863Z,3.90
2022-10-02T20:13:12.152Z,4.17
2022-10-02T20:16:23.409Z,3.90
2022-10-02T20:18:51.253Z,3.43
2022-10-02T20:21:36.351Z,4.73
2022-10-02T20:24:12.555Z,4.63
2022-10-02T20:26:41.628Z,4.70
2022-10-02T20:29:15.782Z,4.50
2022-10-02T20:31:49.592Z,4.33
2022-10-02T20:34:24.957Z,3.67
2022-10-02T20:36:58.407Z,4.40
2022-10-02T20:39:34.835Z,3.87
2022-10-02T20:42:09.780Z,4.20
2022-10-02T20:44:38.058Z,3.70
2022-10-02T20:47:29.028Z,4.93
2022-10-02T20:50:21.575Z,4.60
2022-10-02T20:53:30.892Z,4.67
2022-10-02T20:56:06.559Z,3.53
2022-10-02T20:59:07.143Z,4.20
2022-10-02T21:01:44.398Z,3.90
2022-10-02T21:04:41.716Z,4.37
2022-10-02T21:07:31.194Z,4.57
2022-10-02T21:10:39.269Z,4.40
2022-10-02T21:13:33.740Z,3.80
2022-10-02T21:16:35.504Z,3.53
2022-10-02T21:19:21.189Z,4.40
2022-10-02T21:22:21.528Z,4.07
2022-10-02T21:25:26.914Z,4.57
2022-10-02T21:28:41.435Z,4.10
2022-10-02T21:31:24.152Z,3.50
2022-10-02T21:34:04.156Z,4.10
2022-10-02T21:36:37.054Z,4.43
2022-10-02T21:39:30.608Z,3.70
2022-10-02T21:42:45.421Z,3.67
2022-10-02T21:45:57.517Z,4.00
2022-10-02T21:49:01.778Z,3.77
2022-10-02T21:52:04.610Z,3.63
2022-10-02T21:54:58.543Z,3.40
2022-10-02T21:58:01.028Z,4.00
2022-10-02T22:00:31.398Z,3.90
2022-10-02T22:03:31.028Z,4.33
2022-10-02T22:06:27.632Z,4.00
2022-10-02T22:09:12.957Z,4.23
2022-10-02T22:11:51.550Z,3.47
2022-10-02T22:14:27.087Z,3.80
2022-10-02T22:16:59.612Z,4.47
2022-10-02T22:19:45.148Z,3.93
2022-10-02T22:22:31.966Z,3.70
2022-10-02T22:25:19.690Z,4.60
2022-10-02T22:28:04.553Z,3.80
2022-10-02T22:30:39.035Z,4.93
2022-10-02T22:33:33.733Z,4.37
2022-10-02T22:36:14.403Z,3.83
2022-10-02T22:38:47.376Z,4.07
2022-10-02T22:41:25.218Z,4.17
2022-10-02T22:43:55.822Z,4.27
2022-10-02T22:46:40.289Z,4.03
2022-10-02T22:49:19.690Z,5.17
2022-10-02T22:51:59.237Z,4.53
2022-10-02T22:54:32.972Z,3.90
2022-10-02T22:57:12.700Z,4.20
2022-10-02T22:59:44.364Z,4.33
2022-10-02T23:02:15.731Z,4.00
2022-10-02T23:04:50.372Z,3.60
2022-10-02T23:07:26.882Z,4.07
2022-10-02T23:10:00.701Z,3.87
2022-10-02T23:12:39.832Z,4.03
2022-10-02T23:15:29.866Z,3.73
2022-10-02T23:17:59.829Z,4.33
2022-10-02T23:20:33.264Z,4.27
2022-10-02T23:23:05.644Z,3.93
2022-10-02T23:25:42.863Z,3.73
2022-10-02T23:28:16.668Z,3.80
2022-10-02T23:30:48.293Z,3.70
2022-10-02T23:33:23.104Z,4.13
2022-10-02T23:35:55.518Z,3.80
2022-10-02T23:38:28.558Z,4.40
2022-10-02T23:41:22.880Z,3.83
2022-10-02T23:44:00.944Z,4.37
2022-10-02T23:46:32.561Z,4.10
2022-10-02T23:48:59.964Z,4.33
2022-10-02T23:51:35.526Z,4.10
2022-10-02T23:54:31.131Z,4.67
2022-10-02T23:57:24.594Z,4.50
